Time;durP1;ratioP1;P1;durP2;ratioP2;P2;SDS_P1;SDS_P2;PMS_P1;PMS_P2;Temp;Humidity;BMP_temperature;BMP_pressure;BME280_temperature;BME280_humidity;BME280_pressure;Samples;Min_cycle;Max_cycle;Signal;HPM_P1;HPM_P2
2022/06/30 00:01:36;;;;;;;1.70;1.60;;;20.40;99.90;;;;;;4993879;28;20431;-73
2022/06/30 00:04:03;;;;;;;1.88;1.77;;;20.30;99.90;;;;;;4992792;28;20433;-73
2022/06/30 00:06:30;;;;;;;1.63;1.52;;;20.20;99.90;;;;;;4988596;28;20443;-73
2022/06/30 00:08:57;;;;;;;1.50;1.50;;;20.10;99.90;;;;;;5005604;28;20467;-73
2022/06/30 00:11:23;;;;;;;1.40;1.40;;;20.00;99.90;;;;;;5010083;28;20454;-73
2022/06/30 00:13:50;;;;;;;1.30;1.30;;;19.90;99.90;;;;;;5007306;28;20433;-72
2022/06/30 00:16:17;;;;;;;1.60;1.50;;;20.00;99.90;;;;;;4990037;28;20550;-72
2022/06/30 00:18:45;;;;;;;1.73;1.63;;;20.20;99.90;;;;;;5008571;28;20899;-72
2022/06/30 00:21:12;;;;;;;1.58;1.48;;;20.20;99.90;;;;;;5012197;28;20432;-72
2022/06/30 00:23:38;;;;;;;1.33;1.33;;;20.30;99.90;;;;;;5011990;28;20432;-73
2022/06/30 00:26:06;;;;;;;1.30;1.30;;;20.30;99.90;;;;;;5011310;28;20955;-75
2022/06/30 00:28:35;;;;;;;1.55;1.33;;;20.40;99.90;;;;;;5013985;28;20464;-73
2022/06/30 00:31:04;;;;;;;1.40;1.40;;;20.30;99.90;;;;;;5002856;28;20440;-72
2022/06/30 00:33:31;;;;;;;1.60;1.50;;;20.30;99.90;;;;;;4997541;28;20503;-72
2022/06/30 00:35:58;;;;;;;1.13;1.13;;;20.20;99.90;;;;;;5011804;28;20835;-72
2022/06/30 00:38:25;;;;;;;1.30;1.30;;;20.20;99.90;;;;;;5010810;28;20428;-72
2022/06/30 00:40:51;;;;;;;1.27;1.27;;;20.10;99.90;;;;;;5011488;28;20440;-72
2022/06/30 00:43:18;;;;;;;1.40;1.40;;;20.00;99.90;;;;;;5010699;28;20433;-72
2022/06/30 00:45:47;;;;;;;1.35;1.27;;;20.00;99.90;;;;;;5011952;28;20446;-72
2022/06/30 00:48:16;;;;;;;1.63;1.60;;;20.10;99.90;;;;;;4996797;28;20434;-72
2022/06/30 00:50:45;;;;;;;1.27;1.27;;;20.10;99.90;;;;;;4991885;28;20438;-72
2022/06/30 00:53:13;;;;;;;1.27;1.27;;;20.10;99.90;;;;;;5011166;28;20432;-73
2022/06/30 00:55:40;;;;;;;1.23;1.13;;;20.00;99.90;;;;;;5011219;28;20922;-72
2022/06/30 00:58:08;;;;;;;1.48;1.38;;;20.00;99.90;;;;;;5010231;28;20552;-73
2022/06/30 01:00:38;;;;;;;1.53;1.50;;;19.90;99.90;;;;;;5010012;28;20527;-72
2022/06/30 01:03:07;;;;;;;1.45;1.40;;;19.90;99.90;;;;;;5009147;28;20444;-73
2022/06/30 01:05:34;;;;;;;1.70;1.60;;;19.80;99.90;;;;;;5011231;28;21110;-73
2022/06/30 01:08:04;;;;;;;1.20;1.20;;;19.70;99.90;;;;;;5008543;28;20444;-72
2022/06/30 01:13:16;;;;;;;1.50;1.40;;;19.70;99.90;;;;;;5009582;28;20529;-73
2022/06/30 01:15:43;;;;;;;1.58;1.48;;;19.70;99.90;;;;;;5009955;28;20456;-72
2022/06/30 01:18:10;;;;;;;1.13;1.13;;;19.70;99.90;;;;;;5010304;28;20858;-73
2022/06/30 01:20:38;;;;;;;1.17;1.17;;;19.50;99.90;;;;;;5011557;28;20544;-72
2022/06/30 01:23:05;;;;;;;1.50;1.50;;;19.50;99.90;;;;;;5023743;28;20476;-73
2022/06/30 01:25:32;;;;;;;1.25;1.25;;;19.40;99.90;;;;;;5009498;28;21027;-72
2022/06/30 01:28:00;;;;;;;1.75;1.73;;;19.40;99.90;;;;;;5001303;28;20468;-72
2022/06/30 01:30:27;;;;;;;1.87;1.77;;;19.40;99.90;;;;;;5010673;28;20439;-73
2022/06/30 01:32:57;;;;;;;1.60;1.50;;;19.40;99.90;;;;;;5006837;28;20516;-72
2022/06/30 01:35:24;;;;;;;1.38;1.35;;;19.30;99.90;;;;;;5010722;28;20510;-73
2022/06/30 01:37:54;;;;;;;1.30;1.30;;;19.30;99.90;;;;;;5010465;28;20429;-72
2022/06/30 01:40:23;;;;;;;1.67;1.58;;;19.30;99.90;;;;;;5011053;28;20428;-72
2022/06/30 01:42:51;;;;;;;1.53;1.43;;;19.30;99.90;;;;;;5005046;28;20462;-73
2022/06/30 01:45:19;;;;;;;1.35;1.35;;;19.30;99.90;;;;;;4991536;28;20453;-72
2022/06/30 01:47:46;;;;;;;1.45;1.42;;;19.30;99.90;;;;;;5003944;28;20439;-73
2022/06/30 01:50:17;;;;;;;1.50;1.40;;;19.30;99.90;;;;;;5010847;28;20534;-73
2022/06/30 01:52:44;;;;;;;1.48;1.38;;;19.20;99.90;;;;;;5010459;28;20790;-73
2022/06/30 01:55:12;;;;;;;1.30;1.30;;;19.20;99.90;;;;;;5008143;28;20512;-73
2022/06/30 01:57:39;;;;;;;1.13;1.13;;;19.20;99.90;;;;;;5006535;28;20808;-73
2022/06/30 02:00:12;;;;;;;1.30;1.30;;;19.20;99.90;;;;;;5010436;28;20467;-73
2022/06/30 02:02:39;;;;;;;1.30;1.20;;;19.10;99.90;;;;;;5002610;28;21155;-73
2022/06/30 02:05:07;;;;;;;1.45;1.40;;;19.20;99.90;;;;;;5009375;28;20436;-74
2022/06/30 02:07:37;;;;;;;1.50;1.40;;;19.20;99.90;;;;;;5000302;28;20445;-73
2022/06/30 02:10:09;;;;;;;1.23;1.17;;;19.30;99.90;;;;;;5003027;28;20443;-73
2022/06/30 02:12:48;;;;;;;1.50;1.50;;;19.40;99.90;;;;;;5006888;28;20432;-73
2022/06/30 02:15:33;;;;;;;1.50;1.40;;;19.40;99.90;;;;;;5008722;28;20504;-72
2022/06/30 02:18:02;;;;;;;1.10;1.10;;;19.40;99.90;;;;;;5005240;28;20425;-73
2022/06/30 02:20:29;;;;;;;1.50;1.40;;;19.50;99.90;;;;;;5010043;28;20432;-73
2022/06/30 02:22:58;;;;;;;1.60;1.50;;;19.50;99.90;;;;;;5003274;28;20433;-74
2022/06/30 02:25:27;;;;;;;1.50;1.40;;;19.50;99.90;;;;;;5002188;28;20428;-74
2022/06/30 02:27:54;;;;;;;1.40;1.40;;;19.50;99.90;;;;;;5009719;28;20525;-73
2022/06/30 02:30:22;;;;;;;1.60;1.50;;;19.50;99.90;;;;;;4997741;28;20429;-73
2022/06/30 02:32:49;;;;;;;1.35;1.27;;;19.50;99.90;;;;;;5008745;28;20429;-74
2022/06/30 02:35:16;;;;;;;1.05;1.05;;;19.40;99.90;;;;;;4999735;28;20435;-74
2022/06/30 02:37:43;;;;;;;1.70;1.40;;;19.30;99.90;;;;;;4998949;28;20511;-73
2022/06/30 02:40:12;;;;;;;1.20;1.10;;;19.30;99.90;;;;;;5009049;28;20460;-74
2022/06/30 02:42:42;;;;;;;1.60;1.50;;;19.20;99.90;;;;;;5008902;28;20936;-74
2022/06/30 02:45:09;;;;;;;1.40;1.40;;;19.10;99.90;;;;;;5010507;28;20439;-74
2022/06/30 02:47:38;;;;;;;1.50;1.40;;;19.10;99.90;;;;;;5010426;28;20432;-73
2022/06/30 02:50:11;;;;;;;1.50;1.40;;;19.10;99.90;;;;;;5007688;28;20507;-73
2022/06/30 02:52:38;;;;;;;1.70;1.60;;;19.20;99.90;;;;;;5010540;28;20436;-74
2022/06/30 02:55:07;;;;;;;1.25;1.25;;;19.20;99.90;;;;;;5009803;28;20420;-73
2022/06/30 02:57:35;;;;;;;1.13;1.13;;;19.20;99.90;;;;;;5007313;28;20455;-73
2022/06/30 03:00:05;;;;;;;1.10;1.10;;;19.10;99.90;;;;;;4994160;28;20438;-74
2022/06/30 03:02:35;;;;;;;1.40;1.30;;;19.10;99.90;;;;;;5017745;28;20500;-74
2022/06/30 03:05:03;;;;;;;1.52;1.42;;;19.00;99.90;;;;;;5001673;28;21088;-73
2022/06/30 03:07:33;;;;;;;1.42;1.38;;;19.00;99.90;;;;;;5010078;28;20460;-74
2022/06/30 03:10:00;;;;;;;1.52;1.42;;;18.90;99.90;;;;;;4992719;28;20517;-74
2022/06/30 03:12:28;;;;;;;1.47;1.37;;;18.90;99.90;;;;;;5013556;28;20459;-74
2022/06/30 03:14:55;;;;;;;1.17;1.10;;;18.90;99.90;;;;;;5009538;28;20635;-74
2022/06/30 03:17:22;;;;;;;1.50;1.40;;;18.80;99.90;;;;;;5010320;28;20459;-75
2022/06/30 03:19:52;;;;;;;1.38;1.30;;;18.80;99.90;;;;;;5011359;28;20504;-74
2022/06/30 03:22:19;;;;;;;1.27;1.27;;;18.70;99.90;;;;;;5010947;28;20511;-75
2022/06/30 03:24:45;;;;;;;1.57;1.47;;;18.70;99.90;;;;;;5014029;28;20435;-75
2022/06/30 03:27:12;;;;;;;1.10;1.10;;;18.60;99.90;;;;;;5006974;28;20516;-74
2022/06/30 03:29:39;;;;;;;1.40;1.30;;;18.60;99.90;;;;;;5005886;28;20555;-74
2022/06/30 03:32:06;;;;;;;1.20;1.20;;;18.40;99.90;;;;;;5013398;28;20822;-75
2022/06/30 03:34:33;;;;;;;1.40;1.30;;;18.30;99.90;;;;;;5012967;28;20463;-75
2022/06/30 03:37:03;;;;;;;1.38;1.38;;;18.20;99.90;;;;;;5012255;28;20434;-74
2022/06/30 03:39:29;;;;;;;1.48;1.38;;;18.10;99.90;;;;;;4994305;28;20437;-74
2022/06/30 03:41:59;;;;;;;1.27;1.17;;;18.20;99.90;;;;;;5001810;28;20923;-75
2022/06/30 03:44:26;;;;;;;1.13;1.07;;;18.20;99.90;;;;;;5013279;28;20481;-75
2022/06/30 03:46:52;;;;;;;1.45;1.35;;;18.20;99.90;;;;;;5009317;28;20532;-74
2022/06/30 03:49:23;;;;;;;1.40;1.30;;;18.30;99.90;;;;;;5009382;28;20523;-74
2022/06/30 03:51:50;;;;;;;1.23;1.13;;;18.40;99.90;;;;;;5011775;28;20432;-74
2022/06/30 03:54:19;;;;;;;1.00;1.00;;;18.50;99.90;;;;;;5010987;28;21068;-75
2022/06/30 03:56:47;;;;;;;1.42;1.35;;;18.50;99.90;;;;;;4998368;28;20445;-76
2022/06/30 03:59:14;;;;;;;1.27;1.17;;;18.60;99.90;;;;;;5013379;28;20507;-75
2022/06/30 04:01:41;;;;;;;1.00;1.00;;;18.50;99.90;;;;;;4993712;28;20461;-75
2022/06/30 04:04:08;;;;;;;1.50;1.40;;;18.40;99.90;;;;;;4994363;28;20432;-74
2022/06/30 04:06:35;;;;;;;1.60;1.50;;;18.40;99.90;;;;;;5009968;28;20436;-76
2022/06/30 04:09:02;;;;;;;1.15;1.15;;;18.30;99.90;;;;;;5008935;28;20443;-75
2022/06/30 04:11:29;;;;;;;2.30;1.40;;;18.30;99.90;;;;;;5012725;28;20440;-75
2022/06/30 04:13:58;;;;;;;1.63;1.52;;;18.30;99.90;;;;;;5013277;28;20459;-75
2022/06/30 04:16:25;;;;;;;1.30;1.20;;;18.30;99.90;;;;;;5000555;28;20438;-76
2022/06/30 04:18:54;;;;;;;1.33;1.33;;;18.40;99.90;;;;;;5010017;28;20498;-76
2022/06/30 04:21:21;;;;;;;1.52;1.52;;;18.50;99.90;;;;;;5011175;28;20436;-76
2022/06/30 04:23:47;;;;;;;1.63;1.53;;;18.50;99.90;;;;;;5011874;28;20915;-75
2022/06/30 04:26:14;;;;;;;1.70;1.60;;;18.60;99.90;;;;;;5010612;28;20468;-76
2022/06/30 04:28:41;;;;;;;1.17;1.17;;;18.60;99.90;;;;;;5010515;28;20436;-75
2022/06/30 04:33:53;;;;;;;1.50;1.40;;;18.90;99.90;;;;;;4992630;28;20808;-76
2022/06/30 04:36:23;;;;;;;1.95;1.80;;;19.10;99.90;;;;;;5012941;28;20502;-75
2022/06/30 04:38:52;;;;;;;1.63;1.52;;;19.20;99.90;;;;;;5010726;28;20905;-75
2022/06/30 04:41:24;;;;;;;1.45;1.38;;;19.40;99.90;;;;;;5012452;28;20531;-76
2022/06/30 04:43:58;;;;;;;1.63;1.52;;;19.50;99.90;;;;;;5011329;28;20927;-76
2022/06/30 04:46:26;;;;;;;1.90;1.55;;;19.90;99.90;;;;;;5013880;28;21006;-76
2022/06/30 04:48:53;;;;;;;2.00;1.80;;;20.40;99.90;;;;;;5013426;28;20437;-76
2022/06/30 04:51:21;;;;;;;1.75;1.65;;;21.00;99.90;;;;;;5013661;28;20475;-76
2022/06/30 04:53:51;;;;;;;1.77;1.70;;;21.60;99.90;;;;;;5011936;28;20456;-76
2022/06/30 04:56:18;;;;;;;1.52;1.42;;;22.20;99.90;;;;;;5014337;28;20463;-76
2022/06/30 04:58:45;;;;;;;2.00;1.90;;;22.60;99.90;;;;;;5014081;28;20432;-76
2022/06/30 05:01:15;;;;;;;1.73;1.50;;;23.10;99.90;;;;;;5012465;28;20440;-76
2022/06/30 05:03:42;;;;;;;2.15;1.95;;;23.40;99.90;;;;;;5012089;28;20464;-73
2022/06/30 05:06:09;;;;;;;1.95;1.85;;;23.60;99.90;;;;;;5015574;28;20486;-74
2022/06/30 05:08:36;;;;;;;1.85;1.75;;;24.10;99.90;;;;;;4994034;28;20513;-74
2022/06/30 05:11:03;;;;;;;1.60;1.60;;;24.60;99.90;;;;;;4993598;28;20890;-73
2022/06/30 05:13:30;;;;;;;1.52;1.52;;;25.00;99.90;;;;;;5010572;28;20442;-74
2022/06/30 05:15:57;;;;;;;1.58;1.48;;;25.50;99.90;;;;;;4992854;28;20457;-75
2022/06/30 05:18:26;;;;;;;1.70;1.60;;;25.90;99.90;;;;;;5008218;28;20905;-74
2022/06/30 05:20:53;;;;;;;2.10;2.00;;;26.20;99.90;;;;;;5007196;28;20464;-74
2022/06/30 05:23:20;;;;;;;1.60;1.50;;;26.20;99.90;;;;;;4993716;28;20528;-75
2022/06/30 05:28:36;;;;;;;1.65;1.55;;;26.30;99.90;;;;;;5006544;28;20527;-74
2022/06/30 05:31:02;;;;;;;1.60;1.60;;;26.40;99.90;;;;;;4993995;28;20932;-74
2022/06/30 05:33:29;;;;;;;1.63;1.52;;;26.80;99.90;;;;;;5006950;28;20929;-74
2022/06/30 05:35:58;;;;;;;1.90;1.80;;;27.00;99.90;;;;;;5032769;28;20507;-75
2022/06/30 05:38:25;;;;;;;1.90;1.80;;;27.60;99.90;;;;;;5008877;28;20479;-76
2022/06/30 05:40:51;;;;;;;1.45;1.40;;;27.80;99.90;;;;;;5010670;28;20852;-75
2022/06/30 05:43:18;;;;;;;1.88;1.77;;;28.10;99.90;;;;;;5021713;28;20443;-77
2022/06/30 05:45:51;;;;;;;1.73;1.70;;;28.30;99.90;;;;;;5009475;28;20468;-78
2022/06/30 05:48:18;;;;;;;1.70;1.60;;;28.40;99.90;;;;;;5002526;28;20440;-77
2022/06/30 05:50:45;;;;;;;2.00;1.90;;;28.00;99.90;;;;;;5014863;28;20453;-76
2022/06/30 05:53:12;;;;;;;1.95;1.85;;;28.30;99.90;;;;;;5011121;28;20515;-77
2022/06/30 05:55:39;;;;;;;1.90;1.80;;;28.40;99.90;;;;;;4999926;28;21287;-75
2022/06/30 05:58:12;;;;;;;1.52;1.52;;;28.60;99.90;;;;;;5009295;28;20511;-76
2022/06/30 06:00:39;;;;;;;1.83;1.73;;;28.70;99.90;;;;;;5009637;28;20436;-79
2022/06/30 06:03:06;;;;;;;2.07;1.90;;;29.00;99.90;;;;;;5010872;28;20903;-79
2022/06/30 06:05:33;;;;;;;1.65;1.55;;;28.80;99.90;;;;;;5009460;28;20437;-79
2022/06/30 06:08:07;;;;;;;1.73;1.73;;;28.20;99.90;;;;;;5016373;28;20519;-80
2022/06/30 06:10:35;;;;;;;1.73;1.63;;;28.30;99.90;;;;;;5009066;28;20490;-76
2022/06/30 06:13:05;;;;;;;1.47;1.47;;;27.90;99.90;;;;;;5012358;28;20450;-79
2022/06/30 06:15:32;;;;;;;1.83;1.73;;;28.20;99.90;;;;;;5011550;28;20474;-78
2022/06/30 06:17:59;;;;;;;1.65;1.65;;;27.90;99.90;;;;;;5010526;28;20439;-79
2022/06/30 06:20:26;;;;;;;2.67;1.80;;;27.80;99.90;;;;;;5019368;28;20428;-79
2022/06/30 06:22:53;;;;;;;1.80;1.70;;;28.10;99.90;;;;;;5011138;28;20440;-81
2022/06/30 06:25:19;;;;;;;1.88;1.77;;;28.10;99.90;;;;;;5011624;28;20436;-78
2022/06/30 06:29:05;;;;;;;1.98;1.88;;;28.30;99.90;;;;;;5010563;28;20432;-77
2022/06/30 06:30:35;;;;;;;2.20;2.10;;;29.10;99.90;;;;;;5002942;28;20437;-78
2022/06/30 06:33:02;;;;;;;2.00;1.90;;;29.20;99.90;;;;;;5005793;28;20541;-78
2022/06/30 06:35:29;;;;;;;2.20;2.10;;;29.60;99.90;;;;;;5006836;28;20499;-77
2022/06/30 06:37:58;;;;;;;1.95;1.83;;;29.90;99.90;;;;;;5009877;28;20432;-77
2022/06/30 06:40:25;;;;;;;2.10;2.00;;;29.70;99.90;;;;;;5008534;28;20435;-80
2022/06/30 06:42:51;;;;;;;2.20;2.10;;;28.80;99.90;;;;;;5011858;28;20432;-81
2022/06/30 06:45:19;;;;;;;2.45;2.35;;;28.60;99.90;;;;;;5010652;28;20439;-80
2022/06/30 06:47:46;;;;;;;1.67;1.67;;;28.10;99.90;;;;;;5010984;28;21215;-81
2022/06/30 06:50:13;;;;;;;2.05;1.95;;;28.00;99.90;;;;;;5010433;28;20437;-77
2022/06/30 06:52:40;;;;;;;2.63;2.53;;;28.80;99.90;;;;;;5010290;28;20435;-79
2022/06/30 06:55:07;;;;;;;2.00;1.90;;;29.10;99.90;;;;;;5007566;28;20432;-81
2022/06/30 06:57:36;;;;;;;1.95;1.88;;;29.50;99.90;;;;;;5016473;28;20532;-78
2022/06/30 07:00:04;;;;;;;2.08;1.98;;;29.60;99.90;;;;;;4999772;28;20770;-82
2022/06/30 07:02:31;;;;;;;2.23;2.13;;;29.90;99.90;;;;;;5011548;28;20433;-80
2022/06/30 07:04:58;;;;;;;2.22;2.13;;;29.80;99.90;;;;;;5019587;28;20450;-79
2022/06/30 07:07:32;;;;;;;2.20;2.10;;;30.20;99.90;;;;;;5014459;28;20433;-80
2022/06/30 07:09:58;;;;;;;3.72;2.20;;;30.10;99.90;;;;;;5000388;28;20431;-80
2022/06/30 07:12:25;;;;;;;2.38;2.17;;;30.40;99.90;;;;;;5006799;28;20528;-76
2022/06/30 07:14:53;;;;;;;1.90;1.80;;;30.50;99.90;;;;;;5009083;28;20439;-77
2022/06/30 07:17:20;;;;;;;1.98;1.88;;;31.00;99.90;;;;;;5006472;28;20464;-77
2022/06/30 07:19:47;;;;;;;2.10;2.00;;;31.40;99.90;;;;;;5009547;28;20795;-82
2022/06/30 07:22:14;;;;;;;2.20;2.10;;;31.20;99.90;;;;;;5009193;28;21176;-79
2022/06/30 07:24:41;;;;;;;2.10;2.00;;;31.60;99.90;;;;;;5003792;28;20478;-78
2022/06/30 07:27:11;;;;;;;1.90;1.80;;;32.20;99.90;;;;;;5011163;28;20522;-78
2022/06/30 07:29:38;;;;;;;2.03;1.92;;;32.70;99.90;;;;;;5005790;28;20440;-80
2022/06/30 07:32:05;;;;;;;1.90;1.80;;;32.60;99.90;;;;;;5011054;28;20520;-81
2022/06/30 07:34:31;;;;;;;2.17;2.08;;;32.30;99.90;;;;;;5011137;28;20428;-80
2022/06/30 07:36:58;;;;;;;2.10;2.00;;;32.60;99.90;;;;;;5007248;28;20515;-80
2022/06/30 07:39:25;;;;;;;2.30;2.20;;;32.40;99.90;;;;;;5010755;28;20515;-81
2022/06/30 07:41:52;;;;;;;2.30;2.20;;;32.20;99.90;;;;;;5000118;28;20477;-80
2022/06/30 07:44:19;;;;;;;2.35;2.25;;;32.00;99.90;;;;;;5008635;28;20474;-82
2022/06/30 07:46:49;;;;;;;2.23;2.13;;;31.80;99.90;;;;;;5009576;28;20463;-81
2022/06/30 07:49:16;;;;;;;2.33;2.22;;;31.40;99.90;;;;;;5011146;28;20436;-82
2022/06/30 07:51:42;;;;;;;2.10;2.00;;;31.10;99.90;;;;;;5010930;28;20428;-81
2022/06/30 07:54:09;;;;;;;2.10;2.00;;;31.60;99.90;;;;;;5005134;28;20458;-82
2022/06/30 07:56:36;;;;;;;2.00;1.90;;;32.40;99.90;;;;;;5020548;28;20508;-79
2022/06/30 07:59:03;;;;;;;1.88;1.85;;;33.10;99.90;;;;;;5010217;28;20911;-78
2022/06/30 08:01:32;;;;;;;2.15;2.05;;;33.40;99.90;;;;;;5016829;28;20458;-83
2022/06/30 08:04:01;;;;;;;1.80;1.70;;;33.40;99.90;;;;;;5011277;28;20436;-81
2022/06/30 08:06:28;;;;;;;1.90;1.80;;;33.60;99.90;;;;;;5017942;28;20462;-79
2022/06/30 08:08:58;;;;;;;1.98;1.92;;;33.50;99.90;;;;;;5036913;28;20447;-80
2022/06/30 08:11:26;;;;;;;1.70;1.70;;;33.40;99.90;;;;;;5013368;28;20458;-82
2022/06/30 08:13:53;;;;;;;2.20;2.10;;;33.60;99.90;;;;;;5015737;28;21081;-80
2022/06/30 08:16:19;;;;;;;2.08;2.00;;;32.80;99.90;;;;;;5026804;28;20996;-81
2022/06/30 08:19:03;;;;;;;1.80;1.80;;;33.00;99.90;;;;;;5007325;28;20467;-81
2022/06/30 08:21:30;;;;;;;1.70;1.60;;;33.20;99.90;;;;;;5014479;28;20957;-78
2022/06/30 08:23:57;;;;;;;2.05;2.00;;;33.40;99.90;;;;;;5013656;28;20446;-80
2022/06/30 08:26:23;;;;;;;2.05;1.95;;;33.70;99.90;;;;;;5013419;28;20433;-77
2022/06/30 08:28:50;;;;;;;1.90;1.80;;;33.50;99.90;;;;;;5010622;28;20519;-79
2022/06/30 08:31:17;;;;;;;1.70;1.70;;;32.80;99.90;;;;;;5014341;28;20442;-78
2022/06/30 08:33:47;;;;;;;2.20;2.10;;;33.10;99.90;;;;;;5017352;28;20974;-77
2022/06/30 08:36:14;;;;;;;2.10;2.00;;;32.40;99.90;;;;;;5029107;28;20484;-79
2022/06/30 08:38:47;;;;;;;1.53;1.53;;;32.40;99.90;;;;;;5009894;28;20439;-78
2022/06/30 08:44:00;;;;;;;1.95;1.85;;;32.80;99.90;;;;;;5020984;28;20430;-79
2022/06/30 08:46:28;;;;;;;2.20;2.00;;;33.10;99.90;;;;;;5005833;28;20433;-78
2022/06/30 08:48:55;;;;;;;1.90;1.80;;;33.50;99.90;;;;;;5012934;28;20556;-80
2022/06/30 08:51:22;;;;;;;1.70;1.70;;;33.80;99.90;;;;;;5010050;28;20433;-79
2022/06/30 08:54:10;;;;;;;1.83;1.83;;;34.00;99.90;;;;;;5013721;28;20467;-80
2022/06/30 08:56:38;;;;;;;2.07;1.97;;;34.00;99.90;;;;;;5009217;28;20433;-79
2022/06/30 08:59:05;;;;;;;1.98;1.88;;;34.40;99.90;;;;;;5036439;28;20448;-75
2022/06/30 09:01:35;;;;;;;1.70;1.60;;;33.80;99.90;;;;;;5014459;28;20464;-76
2022/06/30 09:04:02;;;;;;;1.60;1.52;;;33.30;99.90;;;;;;5010626;28;20656;-75
2022/06/30 09:06:29;;;;;;;1.80;1.70;;;33.20;99.90;;;;;;5011554;28;20504;-76
2022/06/30 09:09:04;;;;;;;1.55;1.55;;;33.10;99.90;;;;;;5010802;28;20442;-78
2022/06/30 09:11:55;;;;;;;1.60;1.50;;;33.40;99.90;;;;;;5008810;28;20429;-77
2022/06/30 09:14:43;;;;;;;1.58;1.50;;;33.20;99.90;;;;;;5009245;28;20477;-78
2022/06/30 09:17:15;;;;;;;1.75;1.67;;;33.20;99.90;;;;;;5010059;28;20433;-76
2022/06/30 09:20:01;;;;;;;1.60;1.60;;;33.50;99.90;;;;;;5020896;28;20510;-77
2022/06/30 09:22:35;;;;;;;1.70;1.63;;;33.30;99.90;;;;;;5008711;28;20432;-74
2022/06/30 09:25:22;;;;;;;1.63;1.52;;;32.30;99.90;;;;;;5014114;28;20531;-77
2022/06/30 09:27:49;;;;;;;1.40;1.40;;;32.30;99.90;;;;;;5010722;28;20436;-76
2022/06/30 09:30:21;;;;;;;1.40;1.40;;;33.10;99.90;;;;;;5023243;28;21034;-76
2022/06/30 09:32:54;;;;;;;1.50;1.40;;;32.40;99.90;;;;;;5009860;28;20437;-77
2022/06/30 09:35:27;;;;;;;1.50;1.50;;;32.80;99.90;;;;;;5010359;28;20567;-75
2022/06/30 09:38:03;;;;;;;1.10;1.10;;;32.40;99.90;;;;;;5015387;28;20519;-76
2022/06/30 09:41:00;;;;;;;1.38;1.38;;;32.80;99.90;;;;;;5021155;28;20423;-75
2022/06/30 09:43:36;;;;;;;1.23;1.23;;;32.40;99.90;;;;;;5004688;28;20433;-75
2022/06/30 09:46:05;;;;;;;1.60;1.60;;;32.40;99.90;;;;;;5003395;28;20535;-76
2022/06/30 09:48:33;;;;;;;1.27;1.27;;;32.00;99.90;;;;;;5013322;28;20433;-76
2022/06/30 09:51:03;;;;;;;1.20;1.20;;;32.50;99.90;;;;;;5014012;28;20783;-75
2022/06/30 09:53:31;;;;;;;1.38;1.38;;;33.30;99.90;;;;;;5017015;28;20439;-77
2022/06/30 09:56:11;;;;;;;1.37;1.37;;;34.00;99.90;;;;;;5010620;28;20514;-75
2022/06/30 09:58:42;;;;;;;0.98;0.98;;;34.90;99.90;;;;;;5001487;28;20915;-78
2022/06/30 10:01:10;;;;;;;1.20;1.20;;;35.40;99.90;;;;;;5017884;28;20437;-78
2022/06/30 10:03:46;;;;;;;1.23;1.23;;;34.70;99.60;;;;;;5007519;28;20444;-76
2022/06/30 10:06:15;;;;;;;1.10;1.10;;;34.10;99.90;;;;;;5010774;28;20426;-75
2022/06/30 10:08:42;;;;;;;0.90;0.90;;;33.40;99.40;;;;;;5007390;28;20437;-74
2022/06/30 10:11:10;;;;;;;0.90;0.90;;;33.20;99.10;;;;;;5003002;28;20424;-76
2022/06/30 10:13:41;;;;;;;0.90;0.90;;;32.10;98.80;;;;;;4992524;28;20629;-76
2022/06/30 10:16:09;;;;;;;1.00;1.00;;;32.10;99.90;;;;;;5002331;28;20446;-72
2022/06/30 10:18:37;;;;;;;1.00;1.00;;;32.90;99.90;;;;;;5006265;28;20436;-72
2022/06/30 10:21:04;;;;;;;1.43;1.33;;;33.50;99.30;;;;;;5002803;28;21282;-73
2022/06/30 10:23:32;;;;;;;0.90;0.90;;;33.70;99.40;;;;;;5003208;28;20481;-73
2022/06/30 10:25:59;;;;;;;0.97;0.97;;;33.80;98.70;;;;;;5000147;28;20448;-73
2022/06/30 10:28:27;;;;;;;0.80;0.80;;;33.90;97.90;;;;;;5009572;28;20438;-73
2022/06/30 10:31:42;;;;;;;1.10;1.10;;;34.20;97.60;;;;;;5025946;28;20465;-72
2022/06/30 10:34:15;;;;;;;1.10;1.00;;;34.20;99.00;;;;;;5028897;28;20430;-71
2022/06/30 10:37:16;;;;;;;1.00;1.00;;;34.50;97.60;;;;;;5026010;28;20851;-73
2022/06/30 10:40:08;;;;;;;1.10;1.10;;;33.70;97.30;;;;;;5026918;28;20435;-72
2022/06/30 10:42:48;;;;;;;1.02;1.02;;;33.40;98.00;;;;;;5027124;28;20648;-74
2022/06/30 10:45:30;;;;;;;0.85;0.85;;;33.30;97.50;;;;;;5021867;28;21037;-73
2022/06/30 10:47:58;;;;;;;0.75;0.75;;;32.80;98.10;;;;;;5026388;28;20554;-73
2022/06/30 10:50:41;;;;;;;0.80;0.80;;;32.50;98.90;;;;;;5026212;28;21035;-73
2022/06/30 10:53:10;;;;;;;0.90;0.90;;;32.20;98.80;;;;;;5026120;28;20924;-72
2022/06/30 10:55:52;;;;;;;0.90;0.90;;;32.70;99.50;;;;;;5023031;28;20944;-71
2022/06/30 10:58:22;;;;;;;0.80;0.80;;;33.60;98.50;;;;;;5026894;28;20427;-71
2022/06/30 11:01:12;;;;;;;1.00;1.00;;;34.50;97.10;;;;;;5007466;28;20439;-72
2022/06/30 11:03:39;;;;;;;1.00;1.00;;;34.70;97.50;;;;;;5024692;28;20511;-72
2022/06/30 11:06:11;;;;;;;1.02;1.02;;;34.50;97.00;;;;;;5021504;28;20514;-72
2022/06/30 11:08:57;;;;;;;1.00;1.00;;;34.10;97.60;;;;;;5025670;28;20522;-70
2022/06/30 11:11:24;;;;;;;0.90;0.90;;;33.60;97.90;;;;;;5004458;28;20527;-73
2022/06/30 11:14:03;;;;;;;1.00;1.00;;;33.50;97.20;;;;;;5009093;28;20520;-73
2022/06/30 11:16:34;;;;;;;1.10;1.10;;;34.10;96.90;;;;;;5004133;28;20465;-73
2022/06/30 11:19:04;;;;;;;0.98;0.98;;;34.50;96.40;;;;;;4989761;28;20481;-72
2022/06/30 11:21:31;;;;;;;0.90;0.90;;;34.30;96.60;;;;;;5004263;28;20432;-72
2022/06/30 11:24:02;;;;;;;1.10;1.10;;;34.10;96.20;;;;;;5005316;28;20976;-72
2022/06/30 11:29:23;;;;;;;0.98;0.98;;;33.00;96.70;;;;;;5009292;28;20433;-73
2022/06/30 11:31:50;;;;;;;0.90;0.90;;;32.80;97.60;;;;;;5008988;28;20523;-74
2022/06/30 11:34:21;;;;;;;0.90;0.90;;;32.90;97.30;;;;;;5006063;28;20483;-70
2022/06/30 11:36:49;;;;;;;0.80;0.80;;;33.20;97.80;;;;;;5009214;28;20437;-72
2022/06/30 11:39:20;;;;;;;0.90;0.90;;;33.50;97.80;;;;;;5019861;28;20491;-72
2022/06/30 11:41:55;;;;;;;1.08;1.08;;;33.20;96.70;;;;;;5002478;28;20436;-75
2022/06/30 11:44:24;;;;;;;0.95;0.95;;;32.50;96.60;;;;;;5009813;28;20435;-73
2022/06/30 11:46:58;;;;;;;1.00;1.00;;;32.00;97.20;;;;;;5026651;28;20466;-72
2022/06/30 11:49:38;;;;;;;0.90;0.90;;;31.50;97.90;;;;;;5012919;28;20433;-68
2022/06/30 11:52:15;;;;;;;0.93;0.93;;;30.80;97.60;;;;;;5013184;28;20558;-72
2022/06/30 11:54:56;;;;;;;0.80;0.80;;;30.60;98.80;;;;;;5008808;28;20435;-71
2022/06/30 11:57:25;;;;;;;0.90;0.90;;;31.20;99.60;;;;;;5012447;28;20515;-76
2022/06/30 12:00:03;;;;;;;0.80;0.80;;;32.30;97.50;;;;;;5012282;28;20515;-71
2022/06/30 12:02:32;;;;;;;0.73;0.73;;;33.50;97.40;;;;;;5003860;28;20440;-74
2022/06/30 12:05:00;;;;;;;0.83;0.83;;;34.20;96.30;;;;;;4998337;28;20444;-71
2022/06/30 12:07:29;;;;;;;0.80;0.80;;;33.90;95.50;;;;;;5012709;28;20436;-72
2022/06/30 12:09:57;;;;;;;0.70;0.70;;;34.60;95.50;;;;;;5015411;28;20436;-71
2022/06/30 12:12:29;;;;;;;0.68;0.68;;;34.80;95.30;;;;;;5003826;28;21004;-72
2022/06/30 12:14:58;;;;;;;0.70;0.70;;;34.90;94.90;;;;;;5006114;28;22158;-73
2022/06/30 12:17:30;;;;;;;0.73;0.73;;;34.90;94.40;;;;;;5014571;28;20515;-70
2022/06/30 12:19:57;;;;;;;0.80;0.80;;;34.80;94.10;;;;;;5012986;28;20950;-71
2022/06/30 12:22:24;;;;;;;0.70;0.70;;;34.50;95.10;;;;;;5001182;28;20436;-72
2022/06/30 12:24:52;;;;;;;0.80;0.80;;;34.90;95.60;;;;;;5012229;28;20523;-72
2022/06/30 12:27:27;;;;;;;0.85;0.85;;;34.50;94.30;;;;;;5020400;28;20431;-72
2022/06/30 12:30:04;;;;;;;0.93;0.93;;;34.30;94.50;;;;;;5012478;28;20441;-71
2022/06/30 12:32:31;;;;;;;0.73;0.73;;;34.40;94.90;;;;;;5026996;28;20434;-73
2022/06/30 12:35:10;;;;;;;0.80;0.80;;;34.40;94.70;;;;;;5010671;28;20444;-71
2022/06/30 12:37:44;;;;;;;0.70;0.70;;;34.70;94.60;;;;;;5018474;28;20516;-70
2022/06/30 12:40:16;;;;;;;0.70;0.70;;;35.00;93.70;;;;;;5015976;28;20514;-72
2022/06/30 12:42:47;;;;;;;0.70;0.70;;;35.40;93.60;;;;;;5008993;28;20444;-72
2022/06/30 12:45:41;;;;;;;0.70;0.70;;;35.70;93.10;;;;;;5014311;28;20504;-72
2022/06/30 12:48:09;;;;;;;0.70;0.70;;;35.90;93.30;;;;;;5014805;28;20971;-73
2022/06/30 12:50:38;;;;;;;0.70;0.70;;;36.10;92.90;;;;;;5010486;28;20433;-71
2022/06/30 12:53:19;;;;;;;0.60;0.60;;;35.80;92.80;;;;;;4994200;28;20437;-71
2022/06/30 12:56:08;;;;;;;0.70;0.70;;;35.20;92.60;;;;;;5011386;28;20440;-71
2022/06/30 12:58:50;;;;;;;0.50;0.50;;;34.80;92.80;;;;;;5003558;28;20433;-70
2022/06/30 13:01:20;;;;;;;0.50;0.50;;;35.10;92.70;;;;;;5011560;28;20463;-72
2022/06/30 13:03:57;;;;;;;0.63;0.63;;;35.30;92.10;;;;;;5006058;28;20448;-70
2022/06/30 13:06:25;;;;;;;0.70;0.70;;;35.40;92.10;;;;;;5015126;28;20487;-72
2022/06/30 13:08:52;;;;;;;0.50;0.50;;;35.50;91.70;;;;;;5015827;28;20455;-71
2022/06/30 13:11:27;;;;;;;0.60;0.60;;;35.70;90.40;;;;;;5003749;28;20489;-70
2022/06/30 13:13:56;;;;;;;0.80;0.80;;;35.60;90.70;;;;;;5017658;28;20525;-70
2022/06/30 13:16:27;;;;;;;0.60;0.60;;;34.70;91.10;;;;;;5010840;28;20440;-73